Tapolca, Hungary
Current Conditions -  °F | °C
As of 5:45 PM on Sunday 28 Dec 2014 (Local Time) from LHSM Reporting Station
Moderate Snow Moderate Snow  
Wind Chill: 19°   Ceiling: 1500
Heat Index: 28°   Visibility: 0.62mi
Dew Point: 27°   Wind: 10mph
Humidity: 93%   Direction: 350°N
Pressure: 29.88"   Gusts: NA
Location:  46.89°N, 17.44°E
Report Text: LHSM 281545Z 35009KT 1000 SN OVC015 M02/M03 Q1012 NOSIG
Loading
Personal Weather Stations






























Interactive Weather Map New forecast layout! Learn more

10-Day Weather Forecast

Advertisements
Track Severe Weather on mobile